Hauptseite
METAR-TAF:

METAR-TAF

Flughäfen :

Flughafen Touquet-Côte d’Opale

Le Touquet, Frankreich

Breite: 50-30-53N, Länge: 001-37-39E, Höhe: 6 m

Beobachtung

Neuester Wetterbericht von vor 37 Minuten, um 03:30 UTC
Wind 4 kt aus West/Nordwest
Temperatur 12°C
Luftfeuchtigkeit 82%
Luftdruck 1004 hPa
Sichtweite 10 km oder mehr

METAR: LFAT 070330Z AUTO 29004KT 9999 NCD 12/09 Q1004

Zeit: 06:07 (04:07 UTC)


TAF: fehlend

Wetterbeobachtungen und Prognosen von mehr als 4000 Flughäfen (METAR und TAF Bericht).

Die verfügbaren Stationen werden durch gelbe und rote Markierungen auf der Karte dargestellt.

Führen Sie die Maus auf sie, um den Namen der Station zu sehen.

Darauf klicken, um die Beobachtung von Wetterbeobachtungen und Prognosen zu sehen.

Um die Karte zu ändern : klicken Sie auf den grünen Tasten mit einem schwarzen Kreuz Zum Vergrößern, auf den grünen Button mit einem Gedankenstrich zu verkleinern, oder auf die grünen Pfeile für benachbarte Karten.


METAR-TAF: